Terminal Aerodrome Forecast
Issued by NWS Jackson, KY

Home | Current Version | Previous Version | Text Only | Print | Product List | Glossary On
Versions: 1 2 3 4 5 6 7 8 9 10 11 12 13 14 15 16 17 18 19 20 21 22 23 24 25 26 27
000
FTUS43 KJKL 030921 AAB
TAFJKL
TAF AMD
KJKL 030921Z 0309/0406 00000KT P6SM VCSH BKN015 BKN150
      TEMPO 0309/0313 1SM BR
     FM031300 00000KT P6SM VCSH BKN006 OVC120
     FM031600 VRB04KT P6SM VCTS SCT020CB BKN130=

USA.gov is the U.S. government's official web portal to all federal, state and local government web resources and services.